Time;durP1;ratioP1;P1;durP2;ratioP2;P2;SDS_P1;SDS_P2;PMS_P1;PMS_P2;Temp;Humidity;BMP_temperature;BMP_pressure;BME280_temperature;BME280_humidity;BME280_pressure;Samples;Min_cycle;Max_cycle;Signal;HPM_P1;HPM_P2
2021/12/21 00:01:54;;;;;;;9.23;3.20;;;-1.30;99.90;;;;;;5045135;28;20040;-78
2021/12/21 00:04:20;;;;;;;9.15;3.33;;;-1.40;99.90;;;;;;5028324;28;20502;-77
2021/12/21 00:06:46;;;;;;;6.57;3.03;;;-1.20;99.90;;;;;;5042639;28;20038;-77
2021/12/21 00:09:11;;;;;;;7.40;3.10;;;-1.40;99.90;;;;;;5075288;28;20042;-78
2021/12/21 00:11:37;;;;;;;7.32;2.75;;;-1.20;99.90;;;;;;5012933;28;20041;-77
2021/12/21 00:14:46;;;;;;;8.82;2.83;;;-0.30;99.90;;;;;;5060731;28;20064;-76
2021/12/21 00:19:45;;;;;;;7.85;2.28;;;-1.40;99.90;;;;;;5049188;28;20049;-78
2021/12/21 00:22:51;;;;;;;7.07;2.65;;;-1.40;99.90;;;;;;5057184;28;20049;-77
2021/12/21 00:24:57;;;;;;;9.73;2.58;;;-1.30;99.90;;;;;;5053770;28;20493;-78
2021/12/21 00:27:22;;;;;;;9.05;3.00;;;-1.50;99.90;;;;;;5029188;28;20138;-78
2021/12/21 00:29:48;;;;;;;4.93;2.20;;;-1.40;99.90;;;;;;5045033;28;20525;-77
2021/12/21 00:32:14;;;;;;;4.80;2.45;;;-1.40;99.90;;;;;;5016124;28;20040;-77
2021/12/21 00:34:40;;;;;;;5.20;1.95;;;-1.60;99.90;;;;;;5033954;28;20041;-77
2021/12/21 00:37:06;;;;;;;4.68;2.22;;;-1.50;99.90;;;;;;5061564;28;20087;-77
2021/12/21 00:39:33;;;;;;;4.50;2.40;;;-1.30;99.90;;;;;;5032381;28;20033;-77
2021/12/21 00:42:01;;;;;;;7.57;2.50;;;-1.40;99.90;;;;;;5081166;28;20163;-77
2021/12/21 00:44:27;;;;;;;7.45;3.45;;;-1.50;99.90;;;;;;5048414;28;20091;-77
2021/12/21 00:46:53;;;;;;;7.88;2.83;;;-1.40;99.90;;;;;;5062985;28;20048;-77
2021/12/21 00:49:21;;;;;;;7.18;1.92;;;-1.60;99.90;;;;;;5051056;28;20063;-77
2021/12/21 00:51:47;;;;;;;6.40;2.10;;;-0.70;99.90;;;;;;5066500;28;20040;-77
2021/12/21 00:54:15;;;;;;;6.97;2.03;;;-1.40;99.90;;;;;;5044174;28;20074;-77
2021/12/21 00:56:41;;;;;;;8.48;2.35;;;-1.50;99.90;;;;;;5045553;28;20040;-77
2021/12/21 00:59:07;;;;;;;4.93;2.05;;;-1.60;99.90;;;;;;5043687;28;20041;-77
2021/12/21 01:01:35;;;;;;;6.30;2.30;;;-1.50;99.90;;;;;;5030976;28;20496;-77
2021/12/21 01:04:03;;;;;;;6.85;2.00;;;-1.60;99.90;;;;;;5025658;28;20041;-77
2021/12/21 01:11:54;;;;;;;7.70;1.65;;;-1.50;99.90;;;;;;5019463;28;20095;-78
2021/12/21 01:19:31;;;;;;;;;;;-1.50;99.90;;;;;;5033743;28;20045;-77
2021/12/21 01:22:10;;;;;;;6.05;2.05;;;-1.40;99.90;;;;;;5060457;28;19920;-77
2021/12/21 01:32:31;;;;;;;8.32;2.35;;;-1.80;99.90;;;;;;5043234;28;20412;-76
2021/12/21 01:35:26;;;;;;;5.75;1.98;;;-1.40;99.90;;;;;;5027186;28;20047;-77
2021/12/21 01:38:05;;;;;;;9.13;2.55;;;-1.60;99.90;;;;;;5065080;28;20048;-77
2021/12/21 01:40:49;;;;;;;5.60;2.40;;;-0.50;99.90;;;;;;5020298;28;20348;-77
2021/12/21 01:51:13;;;;;;;12.98;2.35;;;-1.90;99.90;;;;;;5079065;28;20103;-77
2021/12/21 01:53:41;;;;;;;9.27;3.63;;;-1.30;99.90;;;;;;5079030;28;20032;-78
2021/12/21 01:56:07;;;;;;;6.53;2.83;;;-1.70;99.90;;;;;;5024978;28;20417;-78
2021/12/21 01:58:37;;;;;;;14.57;3.13;;;-1.70;99.90;;;;;;5046194;28;20063;-77
2021/12/21 02:01:08;;;;;;;6.05;2.88;;;-1.60;99.90;;;;;;5050581;28;20075;-77
2021/12/21 02:03:34;;;;;;;6.82;3.10;;;-1.80;99.90;;;;;;5059298;28;20044;-77
2021/12/21 02:06:00;;;;;;;9.27;2.78;;;-1.60;99.90;;;;;;5043643;28;20049;-76
2021/12/21 02:08:26;;;;;;;8.95;3.25;;;-1.80;99.90;;;;;;5058738;28;20045;-77
2021/12/21 02:10:52;;;;;;;5.55;3.00;;;-1.70;99.90;;;;;;5040016;28;20107;-77
2021/12/21 02:13:17;;;;;;;5.95;2.92;;;-2.00;99.90;;;;;;5036160;28;20067;-77
2021/12/21 02:15:43;;;;;;;11.82;2.80;;;-1.90;99.90;;;;;;5078325;28;20033;-77
2021/12/21 02:20:49;;;;;;;7.22;2.83;;;-1.40;99.90;;;;;;5048543;28;20053;-77
2021/12/21 02:23:21;;;;;;;9.35;2.85;;;-1.70;99.90;;;;;;5047445;28;20048;-77
2021/12/21 02:26:11;;;;;;;8.10;3.30;;;-1.90;99.90;;;;;;5019450;28;21017;-77
2021/12/21 02:31:05;;;;;;;12.43;3.25;;;-2.00;99.90;;;;;;5045488;28;20060;-77
2021/12/21 02:33:32;;;;;;;9.52;3.30;;;-1.90;99.90;;;;;;5060501;28;20029;-76
2021/12/21 02:35:58;;;;;;;6.47;3.85;;;-1.90;99.90;;;;;;5043713;28;20040;-77
2021/12/21 02:38:26;;;;;;;7.70;3.53;;;-1.80;99.90;;;;;;5030415;28;20037;-76
2021/12/21 02:40:51;;;;;;;11.95;3.92;;;-1.90;99.90;;;;;;5040372;28;20053;-76
2021/12/21 02:43:17;;;;;;;16.52;7.45;;;-1.80;99.90;;;;;;5030936;28;20432;-77
2021/12/21 02:45:43;;;;;;;18.70;6.40;;;-1.80;99.90;;;;;;5025949;28;20052;-77
2021/12/21 02:48:09;;;;;;;9.82;3.95;;;-1.80;99.90;;;;;;5059539;28;20082;-76
2021/12/21 02:50:37;;;;;;;10.80;4.18;;;-0.50;99.90;;;;;;5061740;28;20037;-76
2021/12/21 02:53:04;;;;;;;10.00;3.72;;;-1.80;99.90;;;;;;5059369;28;20044;-76
2021/12/21 02:55:30;;;;;;;7.22;3.25;;;-1.60;99.90;;;;;;5072552;28;20040;-76
2021/12/21 02:57:57;;;;;;;8.80;3.35;;;-1.80;99.90;;;;;;5039649;28;20032;-76
2021/12/21 03:00:27;;;;;;;9.35;3.72;;;-1.70;99.90;;;;;;5059711;28;20126;-77
2021/12/21 03:02:54;;;;;;;9.38;2.70;;;-1.90;99.90;;;;;;5051418;28;20048;-76
2021/12/21 03:05:21;;;;;;;4.70;2.58;;;-1.60;99.90;;;;;;5029797;28;20045;-77
2021/12/21 03:16:14;;;;;;;11.60;3.38;;;-2.10;99.90;;;;;;5038340;28;20543;-76
2021/12/21 03:18:40;;;;;;;6.43;2.25;;;-1.80;99.90;;;;;;5052651;28;20045;-76
2021/12/21 03:21:06;;;;;;;6.35;2.63;;;-1.90;99.90;;;;;;5030940;28;20048;-77
2021/12/21 03:23:31;;;;;;;5.38;2.58;;;-1.60;99.90;;;;;;5045761;28;20083;-77
2021/12/21 03:25:57;;;;;;;6.50;2.08;;;-1.90;99.90;;;;;;5040646;28;20042;-77
2021/12/21 03:28:23;;;;;;;7.28;1.95;;;-2.00;99.90;;;;;;5042931;28;20102;-77
2021/12/21 03:30:48;;;;;;;10.63;2.33;;;-2.00;99.90;;;;;;5060551;28;20033;-77
2021/12/21 03:33:14;;;;;;;6.88;1.85;;;-0.70;99.90;;;;;;5058545;28;20820;-77
2021/12/21 03:35:40;;;;;;;4.88;2.13;;;-1.20;99.90;;;;;;5075377;28;20049;-77
2021/12/21 03:38:06;;;;;;;4.40;2.17;;;-2.00;99.90;;;;;;5061910;28;20046;-77
2021/12/21 03:40:33;;;;;;;6.95;1.90;;;-2.00;99.90;;;;;;5068128;28;20086;-76
2021/12/21 03:43:00;;;;;;;5.70;2.00;;;-1.90;99.90;;;;;;5065271;28;20041;-76
2021/12/21 03:45:31;;;;;;;3.80;1.63;;;-2.10;99.90;;;;;;5046902;28;20061;-77
2021/12/21 03:47:57;;;;;;;6.22;1.77;;;-2.20;99.90;;;;;;5042977;28;20037;-77
2021/12/21 03:50:23;;;;;;;7.60;2.25;;;-2.20;99.90;;;;;;5045846;28;20509;-77
2021/12/21 03:52:49;;;;;;;7.07;2.05;;;-2.10;99.90;;;;;;5048480;28;20503;-77
2021/12/21 03:55:14;;;;;;;7.85;2.10;;;-1.70;99.90;;;;;;5057027;28;20518;-77
2021/12/21 03:57:40;;;;;;;8.07;2.10;;;-2.10;99.90;;;;;;5064656;28;20045;-77
2021/12/21 04:00:11;;;;;;;11.40;3.67;;;-1.30;99.90;;;;;;5044098;28;20040;-77
2021/12/21 04:02:37;;;;;;;9.93;3.90;;;-2.20;99.90;;;;;;5075656;28;20037;-77
2021/12/21 04:05:04;;;;;;;6.68;2.35;;;-2.10;99.90;;;;;;5060820;28;20481;-77
2021/12/21 04:07:29;;;;;;;8.35;2.00;;;-2.20;99.90;;;;;;5043693;28;20044;-77
2021/12/21 04:09:57;;;;;;;4.65;1.92;;;-2.10;99.90;;;;;;5045712;28;20033;-77
2021/12/21 04:12:23;;;;;;;5.63;2.05;;;-1.40;99.90;;;;;;5026697;28;20478;-77
2021/12/21 04:14:49;;;;;;;5.03;2.33;;;-2.20;99.90;;;;;;5047146;28;20116;-77
2021/12/21 04:17:21;;;;;;;7.03;2.63;;;-1.90;99.90;;;;;;5030186;28;20046;-77
2021/12/21 04:19:46;;;;;;;6.72;1.92;;;-2.20;99.90;;;;;;5034124;28;20044;-77
2021/12/21 04:22:13;;;;;;;5.13;2.55;;;-2.20;99.90;;;;;;5044620;28;20036;-77
2021/12/21 04:24:39;;;;;;;6.75;2.03;;;-2.20;99.90;;;;;;5041137;28;20092;-77
2021/12/21 04:27:04;;;;;;;7.18;2.38;;;-2.10;99.90;;;;;;5040235;28;20056;-78
2021/12/21 04:29:30;;;;;;;6.32;2.65;;;-2.20;99.90;;;;;;5006089;28;19924;-77
2021/12/21 04:31:56;;;;;;;4.72;2.17;;;-2.40;99.90;;;;;;5050535;28;20036;-78
2021/12/21 04:34:22;;;;;;;5.97;2.80;;;-0.50;99.90;;;;;;5063334;28;20128;-77
2021/12/21 04:36:48;;;;;;;4.53;2.13;;;-2.10;99.90;;;;;;5076555;28;20048;-77
2021/12/21 04:42:09;;;;;;;4.50;1.98;;;-1.90;99.90;;;;;;5061670;28;20226;-77
2021/12/21 04:44:35;;;;;;;6.45;2.40;;;-2.20;99.90;;;;;;5044215;28;20183;-78
2021/12/21 04:47:01;;;;;;;4.25;2.00;;;;;;;;;;5053269;28;20049;-77
2021/12/21 04:49:27;;;;;;;7.97;2.22;;;-2.60;99.90;;;;;;5035646;28;20037;-77
2021/12/21 04:51:53;;;;;;;6.43;2.05;;;;;;;;;;5012793;28;20040;-77
2021/12/21 04:54:19;;;;;;;6.68;2.53;;;;;;;;;;5083285;28;20060;-77
2021/12/21 04:56:46;;;;;;;4.90;2.30;;;;;;;;;;5039137;28;20120;-77
2021/12/21 04:59:12;;;;;;;8.02;2.47;;;;;;;;;;5043340;28;20124;-77
2021/12/21 05:01:38;;;;;;;4.68;2.28;;;;;;;;;;5044439;28;20041;-77
2021/12/21 05:04:04;;;;;;;4.55;2.05;;;-1.90;99.90;;;;;;5054025;28;20037;-77
2021/12/21 05:06:31;;;;;;;4.85;2.30;;;-2.30;99.90;;;;;;5045581;28;20127;-77
2021/12/21 05:11:59;;;;;;;8.32;2.88;;;-2.40;99.90;;;;;;5021469;28;20276;-77
2021/12/21 05:14:25;;;;;;;3.95;2.03;;;-2.20;99.90;;;;;;5030913;28;20489;-77
2021/12/21 05:16:51;;;;;;;6.85;2.40;;;-2.20;99.90;;;;;;5045112;28;20041;-77
2021/12/21 05:19:19;;;;;;;7.53;2.42;;;-2.30;99.90;;;;;;5028293;28;20045;-76
2021/12/21 05:21:45;;;;;;;8.85;2.40;;;-2.30;99.90;;;;;;5048691;28;20033;-77
2021/12/21 05:24:11;;;;;;;8.63;2.40;;;-2.40;99.90;;;;;;5047713;28;20175;-77
2021/12/21 05:26:37;;;;;;;9.43;2.40;;;-2.20;99.90;;;;;;5010061;28;20045;-76
2021/12/21 05:29:04;;;;;;;8.18;2.67;;;-2.20;99.90;;;;;;5026962;28;20068;-77
2021/12/21 05:31:30;;;;;;;3.78;2.28;;;-2.00;99.90;;;;;;5078033;28;20119;-77
2021/12/21 05:33:56;;;;;;;7.43;2.67;;;-2.40;99.90;;;;;;5080356;28;20219;-77
2021/12/21 05:36:21;;;;;;;5.10;2.50;;;-2.50;99.90;;;;;;5058152;28;20052;-77
2021/12/21 05:38:54;;;;;;;4.38;2.03;;;-1.40;99.90;;;;;;5042478;28;20029;-76
2021/12/21 05:41:28;;;;;;;7.63;2.50;;;-2.30;99.90;;;;;;5064832;28;20045;-77
2021/12/21 05:43:54;;;;;;;7.30;2.70;;;-2.30;99.90;;;;;;5031891;28;20048;-76
2021/12/21 05:46:20;;;;;;;5.18;2.08;;;-2.30;99.90;;;;;;5061568;28;20067;-77
2021/12/21 05:48:51;;;;;;;5.68;2.30;;;-2.50;99.90;;;;;;5044947;28;20067;-76
2021/12/21 05:51:17;;;;;;;7.20;2.90;;;-2.20;99.90;;;;;;5021736;28;20037;-76
2021/12/21 05:53:43;;;;;;;5.72;2.70;;;-2.20;99.90;;;;;;5014078;28;20037;-77
2021/12/21 05:56:09;;;;;;;7.65;2.50;;;-2.20;99.90;;;;;;5045854;28;20473;-78
2021/12/21 05:58:35;;;;;;;9.27;2.80;;;-2.40;99.90;;;;;;5044858;28;20037;-77
2021/12/21 06:01:04;;;;;;;4.63;2.38;;;-2.20;99.90;;;;;;5042484;28;20041;-77
2021/12/21 06:03:30;;;;;;;8.25;3.15;;;;;;;;;;5048840;28;20119;-77
2021/12/21 06:05:55;;;;;;;5.80;3.08;;;-2.50;99.90;;;;;;5045481;28;20052;-77
2021/12/21 06:08:23;;;;;;;4.72;2.70;;;;;;;;;;5008563;28;20037;-77
2021/12/21 06:10:52;;;;;;;9.55;2.58;;;-2.60;99.90;;;;;;5075741;28;20060;-81
2021/12/21 06:26:42;;;;;;;9.85;7.47;;;-2.50;99.90;;;;;;5071641;28;20121;-77
2021/12/21 06:29:08;;;;;;;10.45;4.93;;;-2.60;99.90;;;;;;5059164;28;20067;-76
2021/12/21 06:31:34;;;;;;;11.07;4.45;;;-2.60;99.90;;;;;;5010211;28;20033;-77
2021/12/21 06:34:00;;;;;;;7.40;4.88;;;-2.50;99.90;;;;;;5006714;28;20033;-76
2021/12/21 06:36:26;;;;;;;10.77;6.50;;;-2.60;99.90;;;;;;5047200;28;20032;-77
2021/12/21 06:38:53;;;;;;;9.32;5.53;;;-2.40;99.90;;;;;;5073035;28;20044;-76
2021/12/21 06:41:20;;;;;;;12.45;7.85;;;-2.00;99.90;;;;;;5042537;28;20044;-76
2021/12/21 06:43:46;;;;;;;8.73;3.90;;;-2.70;99.90;;;;;;5040598;28;20099;-75
2021/12/21 06:47:09;;;;;;;7.68;3.80;;;-2.40;99.90;;;;;;5035435;28;20140;-78
2021/12/21 06:52:01;;;;;;;5.82;3.45;;;;;;;;;;5041123;28;20033;-78
2021/12/21 06:54:28;;;;;;;5.50;3.47;;;;;;;;;;5041280;28;20068;-77
2021/12/21 06:56:54;;;;;;;8.82;5.10;;;;;;;;;;5022101;28;20064;-78
2021/12/21 06:59:20;;;;;;;7.75;4.53;;;;;;;;;;5059399;28;20543;-77
2021/12/21 07:01:48;;;;;;;6.35;4.13;;;-2.80;99.90;;;;;;5039764;28;20033;-77
2021/12/21 07:04:17;;;;;;;5.55;4.10;;;-2.50;99.90;;;;;;5025654;28;20045;-77
2021/12/21 07:07:02;;;;;;;8.38;5.28;;;-2.10;99.90;;;;;;5042934;28;20037;-79
2021/12/21 07:09:40;;;;;;;7.70;4.35;;;-2.60;99.90;;;;;;5044339;28;20137;-76
2021/12/21 07:20:22;;;;;;;9.55;5.07;;;-2.40;99.90;;;;;;5011961;28;20033;-77
2021/12/21 07:22:48;;;;;;;9.98;5.40;;;-2.70;99.90;;;;;;5021335;28;20460;-77
2021/12/21 07:25:13;;;;;;;7.38;4.68;;;-2.40;99.90;;;;;;5034882;28;20087;-77
2021/12/21 07:27:39;;;;;;;10.30;4.47;;;-2.60;99.90;;;;;;5024150;28;20116;-77
2021/12/21 07:30:06;;;;;;;7.65;4.70;;;-2.20;99.90;;;;;;5023069;28;20504;-78
2021/12/21 07:32:32;;;;;;;6.10;4.22;;;-2.60;99.90;;;;;;5037771;28;20037;-77
2021/12/21 07:34:58;;;;;;;9.60;4.47;;;-2.60;99.90;;;;;;5023103;28;20094;-77
2021/12/21 07:37:25;;;;;;;9.13;4.45;;;-3.00;99.90;;;;;;5027538;28;20127;-77
2021/12/21 07:39:52;;;;;;;9.50;4.82;;;;;;;;;;5024976;28;20087;-77
2021/12/21 07:42:19;;;;;;;18.73;10.18;;;;;;;;;;5016577;28;20040;-77
2021/12/21 07:44:45;;;;;;;13.50;7.15;;;;;;;;;;5026443;28;20045;-76
2021/12/21 07:47:11;;;;;;;8.25;5.75;;;;;;;;;;5040886;28;20099;-76
2021/12/21 07:49:37;;;;;;;14.35;6.03;;;;;;;;;;5007410;28;20033;-77
2021/12/21 07:52:07;;;;;;;10.05;5.30;;;;;;;;;;5045206;28;20118;-77
2021/12/21 07:54:33;;;;;;;10.50;5.15;;;;;;;;;;5007970;28;20045;-77
2021/12/21 07:56:59;;;;;;;8.70;4.68;;;;;;;;;;5056425;28;20064;-78
2021/12/21 07:59:25;;;;;;;7.97;4.80;;;;;;;;;;5076827;28;20032;-78
2021/12/21 08:01:52;;;;;;;9.32;5.60;;;;;;;;;;5042855;28;20041;-77
2021/12/21 08:04:21;;;;;;;12.43;5.55;;;;;;;;;;5026408;28;20046;-78
2021/12/21 08:06:49;;;;;;;10.30;5.57;;;;;;;;;;5040759;28;20037;-77
2021/12/21 08:09:15;;;;;;;11.07;5.97;;;;;;;;;;5040095;28;20444;-77
2021/12/21 08:14:08;;;;;;;83.65;43.63;;;;;;;;;;5044426;28;20046;-77
2021/12/21 08:16:34;;;;;;;19.95;11.40;;;;;;;;;;5081149;28;20160;-78
2021/12/21 08:19:00;;;;;;;17.30;8.38;;;;;;;;;;5047136;28;20049;-78
2021/12/21 08:21:26;;;;;;;12.68;6.43;;;;;;;;;;5046113;28;20076;-78
2021/12/21 08:23:53;;;;;;;12.38;6.15;;;;;;;;;;5044937;28;20033;-77
2021/12/21 08:26:19;;;;;;;13.68;5.45;;;;;;;;;;5046381;28;20116;-77
2021/12/21 08:28:45;;;;;;;18.42;6.75;;;;;;;;;;5044024;28;20044;-75
2021/12/21 08:31:12;;;;;;;10.93;6.03;;;;;;;;;;5030155;28;20468;-77
2021/12/21 08:33:39;;;;;;;11.25;6.63;;;;;;;;;;5046882;28;20427;-77
2021/12/21 08:36:06;;;;;;;13.50;6.65;;;;;;;;;;5071477;28;20481;-77
2021/12/21 08:38:32;;;;;;;13.75;7.22;;;-2.50;99.90;;;;;;5065926;28;20036;-77
2021/12/21 08:41:00;;;;;;;12.50;6.70;;;-2.30;99.90;;;;;;5080885;28;20049;-77
2021/12/21 08:43:28;;;;;;;15.13;8.00;;;-2.30;99.90;;;;;;5030279;28;20036;-78
2021/12/21 08:45:56;;;;;;;12.77;6.53;;;-2.20;99.90;;;;;;5035239;28;20155;-78
2021/12/21 08:48:23;;;;;;;12.85;7.45;;;-2.10;99.90;;;;;;4989042;28;20038;-78
2021/12/21 08:50:50;;;;;;;12.63;7.18;;;-2.20;99.90;;;;;;4993097;28;20064;-78
2021/12/21 08:53:17;;;;;;;16.75;7.22;;;-1.70;99.90;;;;;;5011067;28;20041;-78
2021/12/21 08:55:43;;;;;;;13.05;7.68;;;-1.90;99.90;;;;;;5011061;28;20693;-78
2021/12/21 08:58:10;;;;;;;11.50;7.03;;;-1.60;99.90;;;;;;5027179;28;20600;-78
2021/12/21 09:00:37;;;;;;;12.77;6.40;;;-1.70;99.90;;;;;;5026060;28;20124;-78
2021/12/21 09:03:04;;;;;;;10.23;6.75;;;-1.60;99.90;;;;;;5024100;28;20037;-79
2021/12/21 09:05:31;;;;;;;12.52;7.03;;;-2.10;99.90;;;;;;5040148;28;20128;-78
2021/12/21 09:07:59;;;;;;;9.38;6.45;;;-1.50;99.90;;;;;;5024825;28;20056;-79
2021/12/21 09:10:25;;;;;;;11.82;7.57;;;-1.60;99.90;;;;;;4996760;28;20061;-77
2021/12/21 09:12:52;;;;;;;15.07;7.05;;;-1.10;99.90;;;;;;5045246;28;20055;-77
2021/12/21 09:15:20;;;;;;;16.77;8.13;;;-1.30;99.90;;;;;;5041028;28;20048;-78
2021/12/21 09:17:47;;;;;;;12.35;7.85;;;-1.40;99.90;;;;;;5011562;28;20116;-78
2021/12/21 09:20:16;;;;;;;13.90;7.90;;;-1.40;99.90;;;;;;5009464;28;20490;-77
2021/12/21 09:22:43;;;;;;;18.02;8.55;;;-1.10;99.90;;;;;;5007401;28;20041;-77
2021/12/21 09:25:09;;;;;;;15.25;8.73;;;-0.90;99.90;;;;;;5005819;28;20064;-76
2021/12/21 09:27:36;;;;;;;16.02;8.40;;;-1.10;99.90;;;;;;5010999;28;20124;-77
2021/12/21 09:30:02;;;;;;;15.45;8.88;;;;;;;;;;4993630;28;20424;-78
2021/12/21 09:32:28;;;;;;;17.38;8.82;;;;;;;;;;5007145;28;20112;-77
2021/12/21 09:34:54;;;;;;;15.23;9.05;;;-1.00;99.90;;;;;;5010737;28;20095;-76
2021/12/21 09:37:21;;;;;;;18.05;9.57;;;-0.60;99.90;;;;;;5011188;28;20049;-76
2021/12/21 09:39:48;;;;;;;20.55;9.52;;;;;;;;;;5009960;28;20048;-76
2021/12/21 09:42:16;;;;;;;17.23;8.38;;;;;;;;;;5008617;28;20057;-76
2021/12/21 09:44:42;;;;;;;15.30;9.18;;;;;;;;;;5025120;28;20060;-77
2021/12/21 09:47:10;;;;;;;14.90;7.97;;;;;;;;;;5026492;28;20481;-77
2021/12/21 09:49:43;;;;;;;17.45;8.38;;;;;;;;;;5028099;28;20045;-77
2021/12/21 09:52:11;;;;;;;13.52;6.68;;;;;;;;;;5024134;28;20033;-77
2021/12/21 09:54:37;;;;;;;11.95;6.70;;;;;;;;;;5031609;28;20033;-78
2021/12/21 09:57:04;;;;;;;13.55;7.00;;;-0.20;99.90;;;;;;5049397;28;20077;-79
2021/12/21 09:59:30;;;;;;;15.60;7.00;;;-0.20;99.90;;;;;;5014959;28;20170;-79
2021/12/21 10:01:57;;;;;;;14.20;6.75;;;0.00;99.90;;;;;;5048832;28;20485;-78
2021/12/21 10:04:28;;;;;;;13.10;7.05;;;0.00;99.90;;;;;;5032284;28;20052;-79
2021/12/21 10:06:56;;;;;;;15.02;6.00;;;0.80;99.90;;;;;;5048673;28;20048;-78
2021/12/21 10:09:32;;;;;;;13.02;6.43;;;1.10;99.90;;;;;;5046499;28;20048;-78
2021/12/21 10:11:58;;;;;;;11.10;5.45;;;0.00;99.90;;;;;;5049293;28;20043;-79
2021/12/21 10:14:25;;;;;;;12.27;5.25;;;0.50;99.90;;;;;;5032230;28;20037;-78
2021/12/21 10:17:01;;;;;;;8.65;4.18;;;;;;;;;;5051216;28;20107;-78
2021/12/21 10:19:27;;;;;;;10.00;4.70;;;;;;;;;;5021510;28;20136;-78
2021/12/21 10:21:53;;;;;;;10.13;4.75;;;0.40;99.90;;;;;;5012907;28;20091;-78
2021/12/21 10:24:27;;;;;;;10.45;4.18;;;0.40;99.90;;;;;;5048475;28;20041;-78
2021/12/21 10:27:04;;;;;;;9.95;5.18;;;0.40;99.90;;;;;;5019327;28;20040;-79
2021/12/21 10:29:46;;;;;;;9.93;4.88;;;0.60;99.90;;;;;;5047922;28;20096;-78
2021/12/21 10:32:25;;;;;;;12.48;5.40;;;0.60;99.90;;;;;;5021514;28;20041;-74
2021/12/21 10:34:54;;;;;;;14.63;5.72;;;0.70;99.90;;;;;;5009637;28;20037;-74
2021/12/21 10:37:27;;;;;;;8.52;4.93;;;0.70;99.90;;;;;;5033918;28;20037;-74
2021/12/21 10:40:28;;;;;;;13.43;6.35;;;1.60;99.90;;;;;;5047615;28;20116;-74
2021/12/21 10:42:54;;;;;;;10.40;5.72;;;0.80;99.90;;;;;;5026276;28;20044;-74
2021/12/21 10:45:32;;;;;;;12.27;5.40;;;0.90;99.90;;;;;;5027693;28;20068;-76
2021/12/21 10:48:00;;;;;;;12.70;6.57;;;0.90;99.90;;;;;;5014807;28;20041;-76
2021/12/21 10:50:29;;;;;;;8.73;5.20;;;1.00;99.90;;;;;;5061907;28;20416;-76
2021/12/21 10:52:59;;;;;;;13.05;5.65;;;1.40;99.90;;;;;;5034365;28;20050;-76
2021/12/21 10:55:31;;;;;;;9.63;5.53;;;1.10;99.90;;;;;;5068192;28;20079;-76
2021/12/21 10:58:18;;;;;;;10.85;4.88;;;1.20;99.90;;;;;;5047331;28;20103;-76
2021/12/21 11:00:50;;;;;;;10.15;4.75;;;1.40;99.90;;;;;;5047972;28;20124;-77
2021/12/21 11:03:17;;;;;;;10.73;5.97;;;1.40;99.90;;;;;;5047993;28;20115;-76
2021/12/21 11:05:44;;;;;;;9.68;5.00;;;1.70;99.90;;;;;;5079060;28;20048;-76
2021/12/21 11:08:16;;;;;;;9.95;5.18;;;1.50;99.90;;;;;;5079071;28;20119;-76
2021/12/21 11:10:50;;;;;;;11.65;4.93;;;1.70;99.90;;;;;;5050230;28;20036;-77
2021/12/21 11:13:17;;;;;;;10.10;5.07;;;1.60;99.90;;;;;;5048772;28;20438;-77
2021/12/21 11:15:53;;;;;;;9.95;5.15;;;1.70;99.90;;;;;;5062029;28;20028;-77
2021/12/21 11:18:20;;;;;;;10.52;4.45;;;1.70;99.90;;;;;;5079212;28;20043;-78
2021/12/21 11:20:48;;;;;;;12.80;5.28;;;2.20;99.90;;;;;;5034337;28;20043;-78
2021/12/21 11:23:16;;;;;;;9.77;4.97;;;1.90;99.90;;;;;;5049390;28;20040;-77
2021/12/21 11:25:47;;;;;;;12.40;5.05;;;2.30;99.90;;;;;;5082138;28;20044;-77
2021/12/21 11:28:20;;;;;;;7.93;4.90;;;2.60;99.90;;;;;;5078476;28;20040;-79
2021/12/21 11:30:46;;;;;;;12.43;5.00;;;2.20;99.90;;;;;;5048583;28;20071;-78
2021/12/21 11:33:17;;;;;;;8.63;3.70;;;3.50;99.90;;;;;;5051142;28;20540;-79
2021/12/21 11:38:12;;;;;;;8.30;3.85;;;3.30;99.90;;;;;;5045303;28;20424;-79
2021/12/21 11:40:41;;;;;;;7.85;4.53;;;2.90;99.90;;;;;;5053595;28;20037;-79
2021/12/21 11:43:24;;;;;;;10.05;4.28;;;3.10;99.90;;;;;;5065079;28;20049;-78
2021/12/21 11:45:56;;;;;;;12.75;4.68;;;3.30;99.90;;;;;;5031938;28;20141;-78
2021/12/21 11:48:40;;;;;;;;;;;3.30;99.90;;;;;;5045206;28;20063;-79
2021/12/21 11:51:09;;;;;;;7.35;4.32;;;3.60;99.90;;;;;;5086515;28;20022;-78
2021/12/21 11:53:36;;;;;;;10.63;4.88;;;3.90;99.90;;;;;;5068360;28;20041;-76
2021/12/21 11:56:03;;;;;;;9.05;4.65;;;4.50;99.90;;;;;;5068604;28;20111;-76
2021/12/21 11:58:32;;;;;;;8.23;3.72;;;;;;;;;;5051951;28;20036;-75
2021/12/21 12:01:04;;;;;;;14.18;4.70;;;5.30;99.90;;;;;;5047724;28;20146;-75
2021/12/21 12:03:32;;;;;;;10.05;4.40;;;5.60;99.90;;;;;;5055914;28;20049;-76
2021/12/21 12:06:02;;;;;;;6.45;3.72;;;5.80;99.90;;;;;;5050101;28;20137;-75
2021/12/21 12:08:43;;;;;;;6.18;3.38;;;5.90;99.90;;;;;;5059532;28;20040;-76
2021/12/21 12:11:24;;;;;;;8.95;4.07;;;6.00;99.90;;;;;;5053167;28;20488;-76
2021/12/21 12:14:01;;;;;;;9.23;3.90;;;6.00;99.90;;;;;;5085218;28;20041;-76
2021/12/21 12:16:27;;;;;;;6.97;3.65;;;5.90;99.90;;;;;;5088072;28;20040;-76
2021/12/21 12:18:53;;;;;;;7.90;3.47;;;5.60;99.90;;;;;;5019479;28;20040;-76
2021/12/21 12:21:22;;;;;;;9.45;3.58;;;5.30;99.90;;;;;;5071016;28;20047;-76
2021/12/21 12:23:52;;;;;;;12.18;3.90;;;5.00;99.90;;;;;;5048383;28;20492;-77
2021/12/21 12:26:30;;;;;;;9.50;4.30;;;4.80;99.90;;;;;;5087436;28;20043;-75
2021/12/21 12:29:09;;;;;;;8.10;4.20;;;4.60;99.90;;;;;;5052451;28;20060;-75
2021/12/21 12:31:38;;;;;;;7.65;3.35;;;4.50;99.90;;;;;;5082897;28;20408;-75
2021/12/21 12:34:05;;;;;;;8.10;3.63;;;5.10;99.90;;;;;;5045932;28;20041;-76
2021/12/21 12:36:41;;;;;;;8.75;3.63;;;4.30;99.90;;;;;;5051887;28;20182;-77
2021/12/21 12:39:08;;;;;;;11.00;3.35;;;5.00;99.90;;;;;;5050843;28;20067;-76
2021/12/21 12:41:47;;;;;;;7.20;3.40;;;4.50;99.90;;;;;;5046073;28;20048;-77
2021/12/21 12:44:24;;;;;;;6.07;3.45;;;4.40;99.90;;;;;;5075884;28;20467;-75
2021/12/21 12:47:02;;;;;;;7.20;3.38;;;4.30;99.90;;;;;;5046095;28;20045;-76
2021/12/21 12:49:30;;;;;;;6.75;3.20;;;4.20;99.90;;;;;;5050140;28;20052;-76
2021/12/21 12:52:14;;;;;;;7.85;3.83;;;4.20;99.90;;;;;;5041612;28;20085;-73
2021/12/21 12:54:52;;;;;;;9.65;3.75;;;4.30;99.90;;;;;;5054813;28;20041;-76
2021/12/21 12:57:28;;;;;;;10.85;4.18;;;4.30;99.90;;;;;;5048742;28;20379;-76
2021/12/21 13:00:14;;;;;;;11.65;4.00;;;4.20;99.90;;;;;;5079379;28;20071;-76
2021/12/21 13:03:00;;;;;;;9.02;3.63;;;4.10;99.90;;;;;;5085121;28;20036;-74
2021/12/21 13:05:37;;;;;;;9.77;3.47;;;4.10;99.90;;;;;;5049374;28;20527;-75
2021/12/21 13:08:15;;;;;;;8.85;3.70;;;4.00;99.90;;;;;;5051369;28;20496;-74
2021/12/21 13:10:47;;;;;;;6.97;3.45;;;3.90;99.90;;;;;;5064612;28;20045;-75
2021/12/21 13:13:14;;;;;;;8.00;3.22;;;4.00;99.90;;;;;;5049816;28;20071;-75
2021/12/21 13:15:46;;;;;;;7.35;3.50;;;4.00;99.90;;;;;;5048178;28;20044;-74
2021/12/21 13:18:13;;;;;;;7.47;3.55;;;3.90;99.90;;;;;;5086360;28;20037;-75
2021/12/21 13:20:41;;;;;;;12.75;4.78;;;3.70;99.90;;;;;;5083188;28;20051;-75
2021/12/21 13:23:17;;;;;;;6.68;3.92;;;3.70;99.90;;;;;;5078263;28;20040;-75
2021/12/21 13:26:12;;;;;;;8.25;4.20;;;3.50;99.90;;;;;;5070612;28;20105;-75
2021/12/21 13:28:59;;;;;;;7.78;3.80;;;3.40;99.90;;;;;;5047605;28;20044;-75
2021/12/21 13:31:25;;;;;;;6.85;3.88;;;3.30;99.90;;;;;;5053587;28;20029;-74
2021/12/21 13:33:55;;;;;;;9.65;4.10;;;4.30;99.90;;;;;;5030849;28;20116;-75
2021/12/21 13:36:32;;;;;;;6.65;3.08;;;3.30;99.90;;;;;;5084888;28;20314;-75
2021/12/21 13:38:58;;;;;;;8.05;3.22;;;3.20;99.90;;;;;;5066191;28;20421;-75
2021/12/21 13:41:24;;;;;;;11.27;3.25;;;3.10;99.90;;;;;;5031515;28;20040;-78
2021/12/21 13:43:57;;;;;;;6.40;2.80;;;3.10;99.90;;;;;;5049981;28;20056;-77
2021/12/21 13:46:23;;;;;;;7.63;3.25;;;3.10;99.90;;;;;;5053701;28;20112;-78
2021/12/21 13:48:57;;;;;;;7.30;3.58;;;3.50;99.90;;;;;;5080432;28;20626;-76
2021/12/21 13:51:24;;;;;;;5.93;3.30;;;3.10;99.90;;;;;;5060865;28;20412;-76
2021/12/21 13:53:55;;;;;;;9.63;3.38;;;3.40;99.90;;;;;;5016611;28;20033;-76
2021/12/21 13:56:27;;;;;;;11.48;3.90;;;3.10;99.90;;;;;;5064802;28;20067;-76
2021/12/21 13:58:56;;;;;;;11.57;3.65;;;3.20;99.90;;;;;;5032788;28;20052;-76
2021/12/21 14:01:25;;;;;;;10.15;3.85;;;3.10;99.90;;;;;;5031097;28;20097;-76
2021/12/21 14:03:56;;;;;;;9.40;4.22;;;3.10;99.90;;;;;;5050342;28;20422;-80
2021/12/21 14:06:23;;;;;;;;;;;3.10;99.90;;;;;;5070900;28;20071;-80
2021/12/21 14:08:51;;;;;;;12.70;4.32;;;3.00;99.90;;;;;;5052052;28;20090;-80
2021/12/21 14:11:20;;;;;;;8.52;3.60;;;3.10;99.90;;;;;;5050017;28;20492;-78
2021/12/21 14:13:48;;;;;;;10.50;4.13;;;3.30;99.90;;;;;;5035224;28;20071;-79
2021/12/21 14:16:19;;;;;;;9.55;4.47;;;3.20;99.90;;;;;;5064413;28;20138;-79
2021/12/21 14:18:50;;;;;;;7.45;3.92;;;3.80;99.90;;;;;;5047121;28;20044;-78
2021/12/21 14:21:20;;;;;;;7.55;3.90;;;3.30;99.90;;;;;;5015797;28;20094;-75
2021/12/21 14:23:49;;;;;;;8.52;4.03;;;4.00;99.90;;;;;;5044894;28;20119;-75
2021/12/21 14:26:18;;;;;;;7.65;3.97;;;3.90;99.90;;;;;;5058635;28;20044;-76
2021/12/21 14:28:44;;;;;;;8.57;4.10;;;4.10;99.90;;;;;;5084296;28;20090;-78
2021/12/21 14:31:10;;;;;;;10.63;5.10;;;4.20;99.90;;;;;;5054916;28;20036;-81